Flight Track Log - Related Links

Times and Time Zones

All times are in EDT time to prevent confusion due to time zone crossing. See the N52944 flight status page for this flight to view local times or setup timezone preferences in your user account.

Time Position Orientation Groundspeed Altitude Reporting Facility
EDT Latitude Longitude Course Direction KTS MPH feet Rate Location/Type
Thu 08:52:43 PM 33.9167 -84.2833 79° East 87 100 2,300  Level Atlanta TRACON
Thu 08:53:49 PM 33.9333 -84.2667 40° Northeast 81 93 3,100 750 Climbing Atlanta TRACON
Thu 08:54:43 PM 33.9500 -84.2500 40° Northeast 97 112 3,800 737 Climbing Atlanta TRACON
Thu 08:55:43 PM 33.9500 -84.2167 90° East 102 117 4,500 700 Climbing Atlanta TRACON
Thu 08:56:43 PM 33.9500 -84.1833 90° East 93 107 5,200 650 Climbing Atlanta TRACON
Thu 08:57:43 PM 33.9667 -84.1500 59° Northeast 90 104 5,800 600 Climbing Atlanta TRACON
Thu 08:58:00 PM 33.9491 -84.0206 79° East  Level Estimated
Thu 08:58:43 PM 33.9833 -84.1333 40° Northeast 92 106 6,400  Level Atlanta TRACON
Thu 08:59:43 PM 33.9833 -84.1000 90° East 98 113 7,000 300 Climbing Atlanta TRACON
Thu 09:00:43 PM 33.9833 -84.0500 90° East 131 151 7,000  Level Atlanta TRACON
Thu 09:01:49 PM 33.9833 -84.0000 90° East 138 159 7,000  Level Atlanta TRACON
Thu 09:02:49 PM 33.9667 -83.9667 121° Southeast 135 155 7,000  Level Atlanta TRACON
Thu 09:03:49 PM 33.9667 -83.9167 90° East 139 160 7,000 -50 Level Atlanta TRACON
Thu 09:04:49 PM 33.9667 -83.8667 90° East 135 155 6,900 -50 Descending Atlanta TRACON
Thu 09:05:49 PM 33.9667 -83.8333 90° East 131 151 6,900 50 Level Atlanta TRACON
Thu 09:06:49 PM 33.9667 -83.7833 90° East 124 143 7,000 50 Climbing Atlanta TRACON
Thu 09:07:49 PM 33.9667 -83.7333 90° East 129 148 7,000  Level Atlanta TRACON
Thu 09:08:49 PM 33.9667 -83.7000 90° East 130 150 7,000  Level Atlanta TRACON
Thu 09:09:49 PM 33.9667 -83.6500 90° East 130 150 7,000  Level Atlanta TRACON
Thu 09:10:49 PM 33.9667 -83.6167 90° East 128 147 7,000  Level Atlanta TRACON
Thu 09:11:55 PM 33.9500 -83.5667 112° Southeast 128 147 7,000  Level Atlanta TRACON
Thu 09:12:55 PM 33.9500 -83.5167 90° East 128 147 7,000  Level Atlanta TRACON
Thu 09:13:55 PM 33.9500 -83.4833 90° East 126 145 7,000  Level Atlanta TRACON
Thu 09:14:49 PM 33.9500 -83.4500 90° East 128 147 7,000  Level Atlanta TRACON
Thu 09:15:49 PM 33.9500 -83.4000 90° East 127 146 7,000  Level Atlanta TRACON
Thu 09:16:55 PM 33.9500 -83.3500 90° East 130 150 7,000  Level Atlanta TRACON
Thu 09:17:49 PM 33.9500 -83.3167 90° East 130 150 7,000  Level Atlanta TRACON
Thu 09:18:49 PM 33.9667 -83.2833 59° Northeast 126 145 7,000  Level Atlanta TRACON
Thu 09:19:49 PM 33.9667 -83.2333 90° East 124 143 7,000  Level Atlanta TRACON
Thu 09:21:17 PM 33.9811 -83.1844 70° East 128 147 7,000  Level Atlanta Center
Thu 09:22:17 PM 33.9933 -83.1444 70° East 128 147 7,000  Level Atlanta Center
Thu 09:23:17 PM 34.0014 -83.1067 76° East 123 142 7,000  Level Atlanta Center
Thu 09:24:17 PM 34.0136 -83.0689 69° East 123 142 7,000  Level Atlanta Center
Thu 09:25:17 PM 34.0239 -83.0261 74° East 123 142 7,000  Level Atlanta Center
Thu 09:26:17 PM 34.0339 -82.9861 73° East 123 142 7,000  Level Atlanta Center
Thu 09:27:17 PM 34.0442 -82.9483 72° East 123 142 7,000  Level Atlanta Center
Thu 09:28:17 PM 34.0542 -82.9106 72° East 123 142 7,000  Level Atlanta Center
Thu 09:29:17 PM 34.0642 -82.8703 73° East 123 142 7,000  Level Atlanta Center
Thu 09:30:17 PM 34.0764 -82.8350 67° East 118 136 7,000  Level Atlanta Center
Thu 09:31:17 PM 34.0844 -82.7947 76° East 118 136 7,000  Level Atlanta Center
Thu 09:32:17 PM 34.0944 -82.7594 71° East 113 130 7,000  Level Atlanta Center
Thu 09:33:17 PM 34.1044 -82.7217 72° East 113 130 7,000  Level Atlanta Center
Thu 09:34:17 PM 34.1125 -82.6839 76° East 108 124 7,000  Level Atlanta Center
Thu 09:35:17 PM 34.1225 -82.6486 71° East 108 124 7,000  Level Atlanta Center
Thu 09:36:17 PM 34.1325 -82.6108 72° East 108 124 7,000  Level Atlanta Center
Thu 09:37:17 PM 34.1422 -82.5706 74° East 108 124 7,000  Level Atlanta Center
Thu 09:38:17 PM 34.1522 -82.5328 72° East 108 124 7,000  Level Atlanta Center
Thu 09:39:17 PM 34.1622 -82.4950 72° East 108 124 7,000  Level Atlanta Center
Thu 09:40:17 PM 34.1722 -82.4544 73° East 108 124 7,000  Level Atlanta Center
Thu 09:41:17 PM 34.1842 -82.4167 69° East 108 124 7,000  Level Atlanta Center
Thu 09:42:17 PM 34.1942 -82.3761 73° East 108 124 7,000  Level Atlanta Center
Thu 09:43:17 PM 34.2042 -82.3358 73° East 108 124 7,000 -106 Level Atlanta Center
Thu 09:45:00 PM 34.2201 -82.2714 73° East  Level FlightAware Approximate
Thu 09:52:00 PM 34.3320 -82.0409 48° Northeast  Level FlightAware Approximate
Thu 09:53:00 PM 34.3538 -82.0118 48° Northeast  Level FlightAware Approximate
Thu 09:54:00 PM 34.3756 -81.9828 48° Northeast  Level FlightAware Approximate
Thu 09:55:00 PM 34.3973 -81.9538 48° Northeast  Level FlightAware Approximate
Thu 09:56:00 PM 34.4191 -81.9247 48° Northeast  Level FlightAware Approximate
Thu 09:57:00 PM 34.4408 -81.8956 48° Northeast  Level FlightAware Approximate
Thu 09:58:00 PM 34.4630 -81.8671 46° Northeast  Level FlightAware Approximate
Thu 09:59:00 PM 34.4856 -81.8390 46° Northeast  Level FlightAware Approximate
Thu 10:00:00 PM 34.5082 -81.8108 46° Northeast  Level FlightAware Approximate
Thu 10:01:00 PM 34.5308 -81.7826 46° Northeast  Level FlightAware Approximate
Thu 10:02:00 PM 34.5533 -81.7544 46° Northeast  Level FlightAware Approximate
Thu 10:02:08 PM 34.4589 -81.6128 51° Northeast 120 138 4,900  Level Atlanta Center
Thu 10:02:45 PM 34.4692 -81.5922 59° Northeast 119 137 4,900  Level Atlanta Center
Thu 10:03:00 PM 34.5759 -81.7262 46° Northeast  Level FlightAware Approximate
Thu 10:03:46 PM 34.4828 -81.5542 67° East 119 137 4,900  Level Atlanta Center
Thu 10:04:00 PM 34.5984 -81.6980 46° Northeast  Level FlightAware Approximate
Thu 10:04:52 PM 34.4967 -81.5133 68° East 118 136 5,000  Level Atlanta Center
Thu 10:05:00 PM 34.6209 -81.6698 46° Northeast  Level FlightAware Approximate
Thu 10:05:53 PM 34.5083 -81.4725 71° East 120 138 5,000  Level Atlanta Center
Thu 10:06:00 PM 34.6435 -81.6415 46° Northeast  Level FlightAware Approximate
Thu 10:06:35 PM 34.5161 -81.4472 70° East 122 140 5,000  Level Atlanta Center
Thu 10:07:00 PM 34.6645 -81.6116 51° Northeast  Level FlightAware Approximate
Thu 10:07:36 PM 34.5322 -81.4114 61° Northeast 120 138 5,000  Level Atlanta Center
Thu 10:08:36 PM 34.5436 -81.3708 71° East 128 147 4,600 -446 Descending Atlanta Center
Thu 10:09:37 PM 34.5617 -81.3272 63° Northeast 140 161 4,100 -443 Descending Atlanta Center
Thu 10:10:38 PM 34.5753 -81.2839 69° East 135 155 3,700 -397 Descending Atlanta Center
Thu 10:11:38 PM 34.5825 -81.2408 78° East 132 152 3,300 -378 Descending Atlanta Center
Thu 10:12:45 PM 34.5711 -81.1958 107° East 127 146 2,900 -328 Descending Atlanta Center
Thu 10:13:46 PM 34.5703 -81.1556 91° East 119 137 2,600 -347 Descending Atlanta Center
Thu 10:14:46 PM 34.5881 -81.1219 57° Northeast 118 136 2,200 -198 Descending Atlanta Center
Thu 10:15:47 PM 34.6042 -81.0911 58° Northeast 107 123 2,200  Level Atlanta Center
Thu 10:16:54 PM 34.6200 -81.0578 60° Northeast 108 124 2,200  Level Atlanta Center

Login

Don't have an account? Register now (free) for customized features, flight alerts, and more!